createdAt,value
2023-04-01T00:00:05.644Z,62.80
2023-04-01T00:02:33.558Z,62.60
2023-04-01T00:05:01.954Z,62.70
2023-04-01T00:07:30.622Z,62.80
2023-04-01T00:10:01.059Z,62.90
2023-04-01T00:12:28.892Z,63.00
2023-04-01T00:14:56.731Z,62.80
2023-04-01T00:17:25.152Z,62.90
2023-04-01T00:19:53.181Z,63.00
2023-04-01T00:22:21.717Z,62.80
2023-04-01T00:24:50.040Z,63.10
2023-04-01T00:27:19.898Z,63.00
2023-04-01T00:29:48.578Z,63.00
2023-04-01T00:32:16.552Z,62.90
2023-04-01T00:34:45.386Z,62.90
2023-04-01T00:37:13.515Z,62.90
2023-04-01T00:39:41.522Z,62.90
2023-04-01T00:42:12.413Z,63.00
2023-04-01T00:44:41.745Z,62.70
2023-04-01T00:47:10.065Z,62.90
2023-04-01T00:49:39.476Z,63.10
2023-04-01T00:52:07.702Z,63.00
2023-04-01T00:54:35.790Z,63.00
2023-04-01T00:57:05.795Z,63.00
2023-04-01T00:59:34.923Z,63.00
2023-04-01T01:02:04.885Z,63.10
2023-04-01T01:04:33.660Z,63.00
2023-04-01T01:07:10.730Z,63.00
2023-04-01T01:09:43.706Z,62.90
2023-04-01T01:12:13.956Z,62.90
2023-04-01T01:14:51.636Z,63.10
2023-04-01T01:17:24.862Z,62.90
2023-04-01T01:20:12.793Z,63.00
2023-04-01T01:22:59.134Z,63.10
2023-04-01T01:25:35.293Z,63.00
2023-04-01T01:28:13.752Z,63.00
2023-04-01T01:30:44.411Z,63.10
2023-04-01T01:33:18.633Z,63.10
2023-04-01T01:35:48.415Z,63.10
2023-04-01T01:38:17.548Z,63.30
2023-04-01T01:40:47.046Z,63.00
2023-04-01T01:43:16.383Z,63.00
2023-04-01T01:45:46.757Z,63.10
2023-04-01T01:48:14.510Z,63.10
2023-04-01T01:50:42.766Z,63.10
2023-04-01T01:53:13.153Z,63.00
2023-04-01T01:55:42.243Z,63.20
2023-04-01T01:58:12.082Z,63.10
2023-04-01T02:00:40.200Z,63.00
2023-04-01T02:03:08.359Z,62.90
2023-04-01T02:05:36.764Z,63.10
2023-04-01T02:08:07.480Z,63.10
2023-04-01T02:10:39.177Z,63.10
2023-04-01T02:13:09.982Z,63.00
2023-04-01T02:15:40.007Z,63.10
2023-04-01T02:18:08.144Z,63.10
2023-04-01T02:20:36.759Z,63.00
2023-04-01T02:23:04.729Z,63.00
2023-04-01T02:25:36.043Z,62.90
2023-04-01T02:28:05.758Z,63.00
2023-04-01T02:30:34.056Z,63.20
2023-04-01T02:33:01.856Z,63.10
2023-04-01T02:35:29.686Z,63.00
2023-04-01T02:37:57.472Z,63.00
2023-04-01T02:40:25.946Z,63.00
2023-04-01T02:42:53.904Z,63.10
2023-04-01T02:45:23.430Z,63.00
2023-04-01T02:47:51.629Z,63.00
2023-04-01T02:50:19.951Z,62.90
2023-04-01T02:52:47.717Z,63.10
2023-04-01T02:55:15.745Z,63.10
2023-04-01T02:57:43.911Z,62.90
2023-04-01T03:00:12.871Z,63.00
2023-04-01T03:02:43.099Z,63.10
2023-04-01T03:05:11.199Z,63.00
2023-04-01T03:07:39.476Z,63.20
2023-04-01T03:10:08.659Z,63.10
2023-04-01T03:12:36.975Z,63.30
2023-04-01T03:15:10.922Z,63.10
2023-04-01T03:17:41.533Z,63.20
2023-04-01T03:20:11.796Z,63.10
2023-04-01T03:22:41.553Z,63.10
2023-04-01T03:25:11.611Z,63.30
2023-04-01T03:27:39.893Z,63.20
2023-04-01T03:30:09.323Z,63.20
2023-04-01T03:32:37.589Z,63.30
2023-04-01T03:35:07.974Z,63.20
2023-04-01T03:37:36.060Z,63.10
2023-04-01T03:40:04.639Z,63.20
2023-04-01T03:42:33.741Z,63.20
2023-04-01T03:45:01.689Z,63.50
2023-04-01T03:47:29.977Z,63.30
2023-04-01T03:49:57.755Z,63.40
2023-04-01T03:52:27.707Z,63.20
2023-04-01T03:54:55.718Z,63.20
2023-04-01T03:57:23.753Z,63.30
2023-04-01T03:59:51.767Z,63.30
2023-04-01T04:02:20.129Z,63.20
2023-04-01T04:04:48.624Z,63.30
2023-04-01T04:07:16.964Z,63.30
2023-04-01T04:09:46.324Z,63.30
2023-04-01T04:12:14.067Z,63.20
2023-04-01T04:14:42.380Z,63.30
2023-04-01T04:17:14.739Z,63.40
2023-04-01T04:19:42.662Z,63.30
2023-04-01T04:22:10.767Z,63.50
2023-04-01T04:24:38.960Z,63.30
2023-04-01T04:27:08.762Z,63.30
2023-04-01T04:29:36.745Z,63.30
2023-04-01T04:32:05.139Z,63.40
2023-04-01T04:34:33.296Z,63.40
2023-04-01T04:37:01.443Z,63.30
2023-04-01T04:39:29.644Z,63.30
2023-04-01T04:41:57.379Z,63.30
2023-04-01T04:44:26.939Z,63.40
2023-04-01T04:46:57.115Z,63.40
2023-04-01T04:49:26.496Z,63.30
2023-04-01T04:51:54.728Z,63.40
2023-04-01T04:54:22.683Z,63.40
2023-04-01T04:56:50.688Z,63.50
2023-04-01T04:59:18.594Z,63.40
2023-04-01T05:01:48.381Z,63.30
2023-04-01T05:04:16.320Z,63.40
2023-04-01T05:06:45.227Z,63.40
2023-04-01T05:09:13.374Z,63.30
2023-04-01T05:11:41.250Z,63.40
2023-04-01T05:14:14.914Z,63.40
2023-04-01T05:16:43.238Z,63.50
2023-04-01T05:19:12.799Z,63.30
2023-04-01T05:21:41.161Z,63.50
2023-04-01T05:24:10.657Z,63.30
2023-04-01T05:26:38.829Z,63.40
2023-04-01T05:29:06.965Z,63.50
2023-04-01T05:31:34.906Z,63.50
2023-04-01T05:34:03.250Z,63.50
2023-04-01T05:36:32.743Z,63.50
2023-04-01T05:39:00.887Z,63.20
2023-04-01T05:41:28.942Z,63.30
2023-04-01T05:43:57.628Z,63.40
2023-04-01T05:46:25.760Z,63.10
2023-04-01T05:48:53.834Z,63.30
2023-04-01T05:51:21.764Z,63.30
2023-04-01T05:53:51.763Z,63.40
2023-04-01T05:56:19.800Z,63.10
2023-04-01T05:58:49.113Z,63.30
2023-04-01T06:01:17.093Z,63.40
2023-04-01T06:03:45.199Z,63.30
2023-04-01T06:06:16.909Z,63.20
2023-04-01T06:08:45.206Z,63.20
2023-04-01T06:11:21.318Z,63.30
2023-04-01T06:14:09.934Z,63.00
2023-04-01T06:16:44.548Z,63.30
2023-04-01T06:19:21.826Z,63.10
2023-04-01T06:22:11.200Z,63.40
2023-04-01T06:24:46.061Z,63.10
2023-04-01T06:27:20.775Z,63.10
2023-04-01T06:30:12.890Z,63.40
2023-04-01T06:32:51.829Z,63.10
2023-04-01T06:35:26.582Z,63.30
2023-04-01T06:38:21.455Z,63.10
2023-04-01T06:41:22.123Z,63.20
2023-04-01T06:43:56.789Z,63.20
2023-04-01T06:46:28.388Z,63.10
2023-04-01T06:49:05.563Z,63.30
2023-04-01T06:51:38.991Z,63.00
2023-04-01T06:54:08.410Z,63.20
2023-04-01T06:56:36.889Z,63.00
2023-04-01T06:59:07.837Z,63.20
2023-04-01T07:01:38.059Z,63.10
2023-04-01T07:04:08.278Z,63.20
2023-04-01T07:06:39.049Z,63.10
2023-04-01T07:09:08.495Z,62.90
2023-04-01T07:11:38.205Z,63.10
2023-04-01T07:14:10.739Z,63.10
2023-04-01T07:16:40.636Z,63.10
2023-04-01T07:19:10.889Z,63.10
2023-04-01T07:21:42.629Z,63.10
2023-04-01T07:24:12.435Z,63.30
2023-04-01T07:26:41.174Z,63.00
2023-04-01T07:29:13.980Z,63.10
2023-04-01T07:31:53.148Z,63.10
2023-04-01T07:34:24.294Z,63.20
2023-04-01T07:36:56.249Z,63.20
2023-04-01T07:39:31.441Z,63.20
2023-04-01T07:42:02.761Z,63.00
2023-04-01T07:44:36.072Z,63.00
2023-04-01T07:47:17.795Z,62.90
2023-04-01T07:49:51.769Z,62.80
2023-04-01T07:52:22.152Z,62.80
2023-04-01T07:54:51.923Z,63.00
2023-04-01T07:57:22.118Z,63.00
2023-04-01T07:59:57.360Z,62.90
2023-04-01T08:02:31.800Z,62.60
2023-04-01T08:05:05.629Z,62.60
2023-04-01T08:07:38.762Z,62.40
2023-04-01T08:10:13.571Z,62.40
2023-04-01T08:12:47.233Z,62.40
2023-04-01T08:15:22.553Z,62.50
2023-04-01T08:17:56.407Z,62.30
2023-04-01T08:20:29.391Z,62.30
2023-04-01T08:23:02.416Z,62.50
2023-04-01T08:25:31.592Z,62.50
2023-04-01T08:28:01.434Z,62.40
2023-04-01T08:30:36.142Z,62.30
2023-04-01T08:33:07.996Z,62.20
2023-04-01T08:35:40.623Z,62.00
2023-04-01T08:38:12.249Z,61.90
2023-04-01T08:41:00.385Z,62.20
2023-04-01T08:43:44.697Z,62.20
2023-04-01T08:46:45.067Z,62.10
2023-04-01T08:49:22.037Z,61.90
2023-04-01T08:52:08.947Z,61.90
2023-04-01T08:54:58.993Z,61.70
2023-04-01T08:57:38.706Z,61.90
2023-04-01T09:00:14.468Z,62.00
2023-04-01T09:03:22.413Z,62.00
2023-04-01T09:06:31.477Z,62.10
2023-04-01T09:09:21.206Z,61.90
2023-04-01T09:12:29.494Z,61.50
2023-04-01T09:15:37.052Z,61.60
2023-04-01T09:18:33.392Z,61.70
2023-04-01T09:21:30.860Z,61.80
2023-04-01T09:24:35.435Z,61.80
2023-04-01T09:27:08.819Z,62.00
2023-04-01T09:29:56.103Z,61.70
2023-04-01T09:32:38.344Z,61.50
2023-04-01T09:35:15.285Z,61.70
2023-04-01T09:37:54.464Z,61.70
2023-04-01T09:40:26.450Z,61.50
2023-04-01T09:43:09.625Z,61.60
2023-04-01T09:45:46.180Z,61.50
2023-04-01T09:48:24.040Z,61.60
2023-04-01T09:50:55.575Z,61.60
2023-04-01T09:53:38.045Z,61.60
2023-04-01T09:56:49.592Z,61.00
2023-04-01T09:59:55.664Z,60.70
2023-04-01T10:02:49.974Z,61.00
2023-04-01T10:05:44.202Z,60.70
2023-04-01T10:08:26.915Z,60.90
2023-04-01T10:11:47.812Z,61.30
2023-04-01T10:14:29.716Z,61.30
2023-04-01T10:17:30.691Z,61.20
2023-04-01T10:20:17.372Z,61.30
2023-04-01T10:23:19.287Z,61.30
2023-04-01T10:26:12.260Z,61.30
2023-04-01T10:28:57.076Z,61.40
2023-04-01T10:32:05.072Z,61.30
2023-04-01T10:34:50.930Z,61.20
2023-04-01T10:37:30.035Z,61.40
2023-04-01T10:40:24.196Z,61.20
2023-04-01T10:43:36.921Z,61.50
2023-04-01T10:46:38.383Z,61.60
2023-04-01T10:49:46.286Z,61.60
2023-04-01T10:52:44.543Z,61.40
2023-04-01T10:55:50.249Z,61.20
2023-04-01T10:58:55.587Z,61.40
2023-04-01T11:01:39.399Z,61.50
2023-04-01T11:04:54.139Z,61.10
2023-04-01T11:07:50.485Z,61.30
2023-04-01T11:11:12.512Z,61.10
2023-04-01T11:14:04.697Z,61.20
2023-04-01T11:17:00.769Z,60.90
2023-04-01T11:20:12.797Z,61.20
2023-04-01T11:22:59.243Z,60.70
2023-04-01T11:25:38.698Z,60.30
2023-04-01T11:28:18.884Z,60.50
2023-04-01T11:30:57.113Z,60.50
2023-04-01T11:33:25.651Z,60.30
2023-04-01T11:36:14.204Z,60.40
2023-04-01T11:38:52.102Z,60.50
2023-04-01T11:41:27.063Z,60.60
2023-04-01T11:44:02.723Z,60.50
2023-04-01T11:46:33.552Z,60.40
2023-04-01T11:49:06.378Z,60.30
2023-04-01T11:52:09.466Z,60.50
2023-04-01T11:54:53.730Z,60.70
2023-04-01T11:57:38.719Z,60.60
2023-04-01T12:00:22.037Z,60.80
2023-04-01T12:02:54.862Z,60.80
2023-04-01T12:05:28.525Z,60.70
2023-04-01T12:08:12.407Z,60.90
2023-04-01T12:10:42.776Z,60.90
2023-04-01T12:13:17.918Z,60.90
2023-04-01T12:15:56.237Z,61.10
2023-04-01T12:18:26.838Z,60.80
2023-04-01T12:20:57.903Z,61.10
2023-04-01T12:23:48.281Z,61.00
2023-04-01T12:26:28.417Z,60.90
2023-04-01T12:29:10.724Z,60.80
2023-04-01T12:31:44.250Z,60.80
2023-04-01T12:34:34.630Z,60.70
2023-04-01T12:37:07.282Z,60.70
2023-04-01T12:39:47.180Z,60.60
2023-04-01T12:42:20.943Z,60.70
2023-04-01T12:44:57.702Z,60.90
2023-04-01T12:47:41.630Z,60.90
2023-04-01T12:50:28.330Z,60.90
2023-04-01T12:53:13.181Z,61.00
2023-04-01T12:55:41.910Z,61.20
2023-04-01T12:58:44.040Z,61.90
2023-04-01T13:01:37.700Z,61.20
2023-04-01T13:04:22.812Z,61.10
2023-04-01T13:06:55.906Z,61.00
2023-04-01T13:09:30.343Z,61.10
2023-04-01T13:12:08.218Z,61.10
2023-04-01T13:14:49.784Z,61.00
2023-04-01T13:17:19.369Z,61.00
2023-04-01T13:20:01.963Z,61.00
2023-04-01T13:22:40.860Z,61.00
2023-04-01T13:25:11.611Z,61.10
2023-04-01T13:27:40.614Z,61.00
2023-04-01T13:30:23.886Z,61.00
2023-04-01T13:32:56.014Z,61.00
2023-04-01T13:35:35.221Z,61.10
2023-04-01T13:38:50.261Z,61.10
2023-04-01T13:41:24.513Z,61.20
2023-04-01T13:43:53.999Z,61.20
2023-04-01T13:46:41.845Z,61.10
2023-04-01T13:49:25.850Z,61.10
2023-04-01T13:52:11.019Z,61.20
2023-04-01T13:54:59.738Z,61.10
2023-04-01T13:57:39.265Z,61.00
2023-04-01T14:00:24.910Z,61.00
2023-04-01T14:03:15.055Z,60.90
2023-04-01T14:05:51.856Z,60.80
2023-04-01T14:08:28.142Z,60.80
2023-04-01T14:11:01.710Z,60.80
2023-04-01T14:13:35.164Z,60.90
2023-04-01T14:16:32.250Z,61.00
2023-04-01T14:19:14.714Z,60.90
2023-04-01T14:21:44.259Z,60.90
2023-04-01T14:24:23.501Z,61.00
2023-04-01T14:27:29.395Z,60.70
2023-04-01T14:30:03.639Z,61.00
2023-04-01T14:32:37.021Z,60.90
2023-04-01T14:35:32.420Z,60.80
2023-04-01T14:38:08.987Z,60.80
2023-04-01T14:40:48.558Z,60.90
2023-04-01T14:43:24.029Z,61.10
2023-04-01T14:46:02.348Z,61.30
2023-04-01T14:48:33.260Z,61.10
2023-04-01T14:51:10.585Z,61.20
2023-04-01T14:53:42.683Z,61.30
2023-04-01T14:56:10.830Z,61.40
2023-04-01T14:58:45.088Z,61.30
2023-04-01T15:01:24.092Z,61.40
2023-04-01T15:03:55.874Z,61.50
2023-04-01T15:06:57.419Z,61.80
2023-04-01T15:09:28.558Z,61.60
2023-04-01T15:12:03.008Z,61.80
2023-04-01T15:14:39.519Z,61.70
2023-04-01T15:17:24.598Z,61.80
2023-04-01T15:20:01.839Z,61.80
2023-04-01T15:22:40.212Z,62.00
2023-04-01T15:25:22.041Z,61.80
2023-04-01T15:27:52.109Z,62.10
2023-04-01T15:30:34.882Z,62.10
2023-04-01T15:33:31.051Z,62.10
2023-04-01T15:36:02.367Z,62.10
2023-04-01T15:38:37.450Z,62.20
2023-04-01T15:41:10.400Z,62.30
2023-04-01T15:43:43.056Z,62.30
2023-04-01T15:46:16.575Z,62.30
2023-04-01T15:48:52.246Z,62.30
2023-04-01T15:51:26.067Z,62.90
2023-04-01T15:54:15.150Z,62.30
2023-04-01T15:56:52.906Z,62.40
2023-04-01T15:59:32.426Z,63.10
2023-04-01T16:02:02.402Z,62.40
2023-04-01T16:04:42.327Z,62.60
2023-04-01T16:07:18.020Z,62.50
2023-04-01T16:10:27.772Z,62.40
2023-04-01T16:13:00.923Z,62.70
2023-04-01T16:15:30.906Z,62.70
2023-04-01T16:18:29.382Z,62.50
2023-04-01T16:21:00.651Z,62.60
2023-04-01T16:23:32.165Z,62.70
2023-04-01T16:26:05.748Z,62.70
2023-04-01T16:31:56.371Z,62.70
2023-04-01T16:34:28.771Z,62.70
2023-04-01T16:37:32.155Z,62.70
2023-04-01T16:40:05.888Z,62.60
2023-04-01T16:42:38.265Z,62.80
2023-04-01T16:48:09.903Z,62.80
2023-04-01T16:51:32.309Z,62.90
2023-04-01T16:54:07.862Z,62.60
2023-04-01T16:56:45.455Z,62.70
2023-04-01T17:00:09.409Z,62.60
2023-04-01T17:02:59.459Z,62.70
2023-04-01T17:05:42.343Z,62.70
2023-04-01T17:08:41.254Z,62.70
2023-04-01T17:11:16.380Z,62.70
2023-04-01T17:13:49.146Z,62.80
2023-04-01T17:16:26.330Z,62.80
2023-04-01T17:19:03.404Z,62.60
2023-04-01T17:21:46.261Z,62.60
2023-04-01T17:24:24.270Z,62.50
2023-04-01T17:26:54.970Z,62.60
2023-04-01T17:29:28.792Z,62.60
2023-04-01T17:32:00.139Z,62.60
2023-04-01T17:34:50.863Z,62.60
2023-04-01T17:37:37.007Z,63.30
2023-04-01T17:40:28.729Z,62.50
2023-04-01T17:43:02.593Z,62.70
2023-04-01T17:45:32.606Z,62.70
2023-04-01T17:49:05.436Z,62.50
2023-04-01T17:51:55.527Z,62.40
2023-04-01T17:54:26.555Z,62.60
2023-04-01T17:57:06.036Z,62.50
2023-04-01T17:59:38.485Z,62.50
2023-04-01T18:02:16.031Z,62.50
2023-04-01T18:04:54.524Z,62.30
2023-04-01T18:07:50.541Z,62.50
2023-04-01T18:10:37.081Z,62.40
2023-04-01T18:16:50.727Z,62.30
2023-04-01T18:20:00.439Z,62.40
2023-04-01T18:23:17.526Z,62.30
2023-04-01T18:25:54.158Z,62.40
2023-04-01T18:29:02.137Z,62.30
2023-04-01T18:31:35.714Z,62.40
2023-04-01T18:34:17.281Z,62.40
2023-04-01T18:36:59.952Z,62.30
2023-04-01T18:39:36.324Z,62.20
2023-04-01T18:42:13.380Z,62.30
2023-04-01T18:44:47.900Z,62.10
2023-04-01T18:47:26.402Z,62.10
2023-04-01T18:49:56.384Z,62.30
2023-04-01T18:52:25.466Z,62.10
2023-04-01T18:55:16.755Z,62.30
2023-04-01T18:57:48.545Z,62.10
2023-04-01T19:00:17.526Z,62.40
2023-04-01T19:02:49.942Z,62.20
2023-04-01T19:05:19.187Z,62.20
2023-04-01T19:07:48.931Z,62.30
2023-04-01T19:10:28.555Z,62.40
2023-04-01T19:13:09.108Z,62.10
2023-04-01T19:15:41.766Z,62.30
2023-04-01T19:18:24.972Z,62.30
2023-04-01T19:20:58.473Z,62.20
2023-04-01T19:24:11.588Z,62.20
2023-04-01T19:26:42.680Z,61.90
2023-04-01T19:29:19.755Z,61.60
2023-04-01T19:31:55.072Z,61.20
2023-04-01T19:34:28.947Z,60.90
2023-04-01T19:36:58.351Z,60.80
2023-04-01T19:39:34.031Z,60.50
2023-04-01T19:42:07.513Z,60.40
2023-04-01T19:44:40.889Z,60.20
2023-04-01T19:47:14.133Z,60.10
2023-04-01T19:49:48.745Z,60.50
2023-04-01T19:52:18.843Z,60.60
2023-04-01T19:54:48.541Z,60.70
2023-04-01T19:57:23.095Z,61.00
2023-04-01T19:59:53.021Z,61.30
2023-04-01T20:02:40.525Z,61.10
2023-04-01T20:05:23.209Z,61.20
2023-04-01T20:07:53.463Z,61.40
2023-04-01T20:10:23.014Z,61.60
2023-04-01T20:12:56.830Z,61.60
2023-04-01T20:15:29.541Z,61.90
2023-04-01T20:17:57.482Z,61.80
2023-04-01T20:20:30.082Z,61.90
2023-04-01T20:23:26.204Z,61.90
2023-04-01T20:25:55.849Z,62.10
2023-04-01T20:28:27.793Z,62.20
2023-04-01T20:31:13.159Z,62.30
2023-04-01T20:34:10.110Z,62.20
2023-04-01T20:36:41.350Z,62.30
2023-04-01T20:39:36.811Z,62.40
2023-04-01T20:42:26.311Z,62.20
2023-04-01T20:44:58.066Z,62.40
2023-04-01T20:47:42.161Z,62.40
2023-04-01T20:50:13.770Z,62.30
2023-04-01T20:52:43.537Z,62.40
2023-04-01T20:55:41.250Z,62.20
2023-04-01T20:58:13.849Z,62.20
2023-04-01T21:00:48.413Z,62.40
2023-04-01T21:03:28.900Z,62.50
2023-04-01T21:06:24.920Z,62.40
2023-04-01T21:09:00.914Z,62.40
2023-04-01T21:11:33.284Z,62.40
2023-04-01T21:14:09.504Z,62.50
2023-04-01T21:16:44.174Z,62.40
2023-04-01T21:19:21.565Z,62.40
2023-04-01T21:22:00.278Z,62.40
2023-04-01T21:24:36.421Z,62.50
2023-04-01T21:27:07.030Z,62.50
2023-04-01T21:29:54.054Z,62.20
2023-04-01T21:32:31.395Z,62.30
2023-04-01T21:35:00.450Z,62.30
2023-04-01T21:37:51.805Z,62.30
2023-04-01T21:40:43.313Z,62.40
2023-04-01T21:43:18.620Z,62.30
2023-04-01T21:45:53.776Z,62.30
2023-04-01T21:48:46.270Z,62.30
2023-04-01T21:51:44.294Z,59.80
2023-04-01T21:54:46.919Z,57.80
2023-04-01T21:57:48.748Z,55.60
2023-04-01T22:00:23.216Z,54.80
2023-04-01T22:03:28.053Z,53.40
2023-04-01T22:06:02.492Z,55.20
2023-04-01T22:08:48.282Z,56.30
2023-04-01T22:11:23.680Z,56.80
2023-04-01T22:13:53.120Z,57.00
2023-04-01T22:16:26.488Z,57.30
2023-04-01T22:18:57.498Z,57.50
2023-04-01T22:21:30.202Z,57.40
2023-04-01T22:24:00.559Z,57.70
2023-04-01T22:26:30.418Z,57.80
2023-04-01T22:29:00.949Z,58.00
2023-04-01T22:31:31.021Z,58.20
2023-04-01T22:34:02.958Z,58.30
2023-04-01T22:36:35.360Z,58.20
2023-04-01T22:39:12.864Z,58.30
2023-04-01T22:41:48.004Z,58.30
2023-04-01T22:44:21.090Z,58.40
2023-04-01T22:46:54.644Z,58.50
2023-04-01T22:49:24.983Z,58.40
2023-04-01T22:51:56.170Z,58.40
2023-04-01T22:54:26.233Z,58.50
2023-04-01T22:56:55.782Z,58.40
2023-04-01T22:59:26.186Z,58.50
2023-04-01T23:01:57.988Z,58.40
2023-04-01T23:04:26.835Z,58.60
2023-04-01T23:06:57.728Z,58.60
2023-04-01T23:09:26.043Z,58.60
2023-04-01T23:11:55.138Z,58.50
2023-04-01T23:14:35.029Z,58.50
2023-04-01T23:17:07.830Z,58.40
2023-04-01T23:19:38.341Z,58.40
2023-04-01T23:22:11.277Z,58.50
2023-04-01T23:24:40.505Z,58.50
2023-04-01T23:27:10.281Z,58.40
2023-04-01T23:29:39.338Z,58.40
2023-04-01T23:32:07.221Z,58.40
2023-04-01T23:34:35.404Z,58.30
2023-04-01T23:37:04.717Z,58.20
2023-04-01T23:39:35.096Z,58.30
2023-04-01T23:42:04.733Z,58.10
2023-04-01T23:44:32.494Z,58.10
2023-04-01T23:47:00.948Z,58.00
2023-04-01T23:49:32.035Z,58.10
2023-04-01T23:52:01.354Z,57.80
2023-04-01T23:54:34.850Z,57.80
2023-04-01T23:57:06.736Z,57.80
2023-04-01T23:59:37.075Z,57.80
